Terminal Aerodrome Forecast
Issued by NWS

Home | Current Version | Previous Version | Text Only | Print | Product List | Glossary On
Versions: 1 2 3 4 5 6 7 8 9 10 11 12 13
000
FTUS45 KRIW 222320
TAFCPR
TAF
KCPR 222320Z 2300/2324 VRB04KT P6SM FEW080
     FM230200 02022G27KT P6SM FEW060
     FM230700 05009KT P6SM FEW060
     FM232100 34010G18KT P6SM SCT090=

USA.gov is the U.S. government's official web portal to all federal, state and local government web resources and services.